createdAt,value
2022-10-01T00:01:00.348Z,9.21
2022-10-01T00:03:28.307Z,9.11
2022-10-01T00:06:03.452Z,8.96
2022-10-01T00:08:31.591Z,9.07
2022-10-01T00:11:01.624Z,9.07
2022-10-01T00:13:30.442Z,9.07
2022-10-01T00:15:57.477Z,9.20
2022-10-01T00:18:24.268Z,8.97
2022-10-01T00:20:50.975Z,8.96
2022-10-01T00:23:19.287Z,9.13
2022-10-01T00:25:45.971Z,9.11
2022-10-01T00:28:12.800Z,9.13
2022-10-01T00:30:46.435Z,9.11
2022-10-01T00:33:13.188Z,8.94
2022-10-01T00:35:39.902Z,9.07
2022-10-01T00:38:06.664Z,9.07
2022-10-01T00:40:33.370Z,9.05
2022-10-01T00:43:00.138Z,9.07
2022-10-01T00:45:26.923Z,9.05
2022-10-01T00:47:59.070Z,9.08
2022-10-01T00:50:30.513Z,9.07
2022-10-01T00:53:01.721Z,8.93
2022-10-01T00:55:31.532Z,9.04
2022-10-01T00:57:58.736Z,8.98
2022-10-01T01:00:25.522Z,8.92
2022-10-01T01:02:52.464Z,8.98
2022-10-01T01:05:20.037Z,8.93
2022-10-01T01:07:49.082Z,8.91
2022-10-01T01:10:18.101Z,8.88
2022-10-01T01:13:22.089Z,8.77
2022-10-01T01:15:59.302Z,8.81
2022-10-01T01:19:10.789Z,8.61
2022-10-01T01:21:51.957Z,8.47
2022-10-01T01:24:30.752Z,8.53
2022-10-01T01:27:23.471Z,8.52
2022-10-01T01:29:55.473Z,8.54
2022-10-01T01:32:46.447Z,8.64
2022-10-01T01:35:22.291Z,8.49
2022-10-01T01:37:59.060Z,8.38
2022-10-01T01:40:26.381Z,8.37
2022-10-01T01:42:54.958Z,8.20
2022-10-01T01:45:28.780Z,7.97
2022-10-01T01:47:57.574Z,7.81
2022-10-01T01:50:28.593Z,7.87
2022-10-01T01:52:55.669Z,7.75
2022-10-01T01:55:24.182Z,7.63
2022-10-01T01:57:51.519Z,8.01
2022-10-01T02:00:18.308Z,7.86
2022-10-01T02:02:50.296Z,7.88
2022-10-01T02:05:21.066Z,7.66
2022-10-01T02:07:55.073Z,7.61
2022-10-01T02:10:43.117Z,7.38
2022-10-01T02:13:39.060Z,7.39
2022-10-01T02:16:24.267Z,7.37
2022-10-01T02:18:58.557Z,7.21
2022-10-01T02:21:41.455Z,7.11
2022-10-01T02:24:15.769Z,7.05
2022-10-01T02:26:43.741Z,7.06
2022-10-01T02:29:13.264Z,7.06
2022-10-01T02:31:41.213Z,7.04
2022-10-01T02:34:12.365Z,7.07
2022-10-01T02:36:41.201Z,7.25
2022-10-01T02:39:08.795Z,7.68
2022-10-01T02:41:36.645Z,7.58
2022-10-01T02:44:10.405Z,7.54
2022-10-01T02:46:45.979Z,7.79
2022-10-01T02:49:13.419Z,7.90
2022-10-01T02:52:01.962Z,7.90
2022-10-01T02:54:38.265Z,8.03
2022-10-01T02:57:24.133Z,7.85
2022-10-01T02:59:51.921Z,7.78
2022-10-01T03:02:19.607Z,7.91
2022-10-01T03:04:48.227Z,8.03
2022-10-01T03:07:16.192Z,8.10
2022-10-01T03:09:43.043Z,8.06
2022-10-01T03:12:10.784Z,7.95
2022-10-01T03:14:39.378Z,8.01
2022-10-01T03:17:07.256Z,7.98
2022-10-01T03:19:34.270Z,8.05
2022-10-01T03:22:01.046Z,8.10
2022-10-01T03:24:27.889Z,8.12
2022-10-01T03:26:57.972Z,8.06
2022-10-01T03:29:25.827Z,8.07
2022-10-01T03:31:53.091Z,8.15
2022-10-01T03:34:20.643Z,8.13
2022-10-01T03:36:47.378Z,8.23
2022-10-01T03:39:14.243Z,8.16
2022-10-01T03:41:40.966Z,8.20
2022-10-01T03:44:07.756Z,8.22
2022-10-01T03:46:34.531Z,8.24
2022-10-01T03:49:01.405Z,8.20
2022-10-01T03:51:29.344Z,8.18
2022-10-01T03:53:57.309Z,8.17
2022-10-01T03:56:24.788Z,8.19
2022-10-01T03:58:51.897Z,8.19
2022-10-01T04:01:18.637Z,8.18
2022-10-01T04:03:45.466Z,8.15
2022-10-01T04:06:12.556Z,8.09
2022-10-01T04:08:40.528Z,8.06
2022-10-01T04:11:07.733Z,8.08
2022-10-01T04:13:35.440Z,8.03
2022-10-01T04:16:03.332Z,8.10
2022-10-01T04:18:31.052Z,8.04
2022-10-01T04:20:58.178Z,8.05
2022-10-01T04:23:25.398Z,8.01
2022-10-01T04:25:52.165Z,7.85
2022-10-01T04:28:19.549Z,7.86
2022-10-01T04:30:46.641Z,7.80
2022-10-01T04:33:16.212Z,7.61
2022-10-01T04:35:43.637Z,7.46
2022-10-01T04:38:16.814Z,7.33
2022-10-01T04:40:43.968Z,7.19
2022-10-01T04:43:11.435Z,6.86
2022-10-01T04:45:38.517Z,6.81
2022-10-01T04:48:05.788Z,6.64
2022-10-01T04:50:32.567Z,6.77
2022-10-01T04:52:59.464Z,6.66
2022-10-01T04:55:26.240Z,6.53
2022-10-01T04:57:52.981Z,6.36
2022-10-01T05:00:22.265Z,6.54
2022-10-01T05:02:50.239Z,6.57
2022-10-01T05:05:18.240Z,6.55
2022-10-01T05:07:45.075Z,6.63
2022-10-01T05:10:13.625Z,6.52
2022-10-01T05:12:41.428Z,6.56
2022-10-01T05:15:09.516Z,6.52
2022-10-01T05:17:36.290Z,6.64
2022-10-01T05:20:04.816Z,6.84
2022-10-01T05:22:32.181Z,6.77
2022-10-01T05:25:00.403Z,6.76
2022-10-01T05:27:28.097Z,6.69
2022-10-01T05:29:56.288Z,6.74
2022-10-01T05:32:23.464Z,6.74
2022-10-01T05:34:53.632Z,6.53
2022-10-01T05:37:20.815Z,6.77
2022-10-01T05:39:47.841Z,6.74
2022-10-01T05:42:14.603Z,6.61
2022-10-01T05:44:47.069Z,6.56
2022-10-01T05:47:14.545Z,6.50
2022-10-01T05:49:44.713Z,6.56
2022-10-01T05:52:12.453Z,6.42
2022-10-01T05:54:39.175Z,6.35
2022-10-01T05:57:06.582Z,6.32
2022-10-01T05:59:33.883Z,6.32
2022-10-01T06:02:34.850Z,6.37
2022-10-01T06:05:01.709Z,6.45
2022-10-01T06:07:31.535Z,6.57
2022-10-01T06:09:58.306Z,6.56
2022-10-01T06:12:25.238Z,6.67
2022-10-01T06:14:51.972Z,6.67
2022-10-01T06:17:18.699Z,6.68
2022-10-01T06:19:45.434Z,6.76
2022-10-01T06:22:12.142Z,6.97
2022-10-01T06:24:40.206Z,7.19
2022-10-01T06:27:06.886Z,7.28
2022-10-01T06:29:35.852Z,7.40
2022-10-01T06:32:02.991Z,7.55
2022-10-01T06:34:29.783Z,7.61
2022-10-01T06:36:56.461Z,7.60
2022-10-01T06:39:23.191Z,7.63
2022-10-01T06:41:49.907Z,7.58
2022-10-01T06:44:16.639Z,7.51
2022-10-01T06:46:43.355Z,7.78
2022-10-01T06:49:10.121Z,7.67
2022-10-01T06:51:55.399Z,7.75
2022-10-01T06:54:22.191Z,7.75
2022-10-01T06:56:48.873Z,7.88
2022-10-01T06:59:15.591Z,7.89
2022-10-01T07:01:42.322Z,7.91
2022-10-01T07:04:41.309Z,8.07
2022-10-01T07:07:08.084Z,8.18
2022-10-01T07:09:34.811Z,8.01
2022-10-01T07:12:01.847Z,8.02
2022-10-01T07:14:28.519Z,8.00
2022-10-01T07:16:55.304Z,8.03
2022-10-01T07:19:22.090Z,8.07
2022-10-01T07:21:49.048Z,8.10
2022-10-01T07:24:15.791Z,8.14
2022-10-01T07:26:42.585Z,8.10
2022-10-01T07:29:10.456Z,8.07
2022-10-01T07:31:37.976Z,8.13
2022-10-01T07:34:04.953Z,8.23
2022-10-01T07:36:31.743Z,8.27
2022-10-01T07:38:59.165Z,8.46
2022-10-01T07:41:26.006Z,8.33
2022-10-01T07:43:52.747Z,8.46
2022-10-01T07:46:19.640Z,8.52
2022-10-01T07:48:49.176Z,8.56
2022-10-01T07:51:16.055Z,8.62
2022-10-01T07:53:42.844Z,8.68
2022-10-01T07:56:09.584Z,8.75
2022-10-01T07:58:36.662Z,8.79
2022-10-01T08:01:04.443Z,8.86
2022-10-01T08:03:31.177Z,8.98
2022-10-01T08:05:58.017Z,9.08
2022-10-01T08:08:24.772Z,9.14
2022-10-01T08:10:51.558Z,9.26
2022-10-01T08:13:18.483Z,9.34
2022-10-01T08:15:47.486Z,9.37
2022-10-01T08:18:14.472Z,9.44
2022-10-01T08:20:41.560Z,9.58
2022-10-01T08:23:10.493Z,9.66
2022-10-01T08:25:38.014Z,9.75
2022-10-01T08:28:04.927Z,9.76
2022-10-01T08:30:31.719Z,9.77
2022-10-01T08:33:00.292Z,9.85
2022-10-01T08:35:28.211Z,10.13
2022-10-01T08:37:58.015Z,10.10
2022-10-01T08:40:25.995Z,10.22
2022-10-01T08:43:00.080Z,10.32
2022-10-01T08:45:43.313Z,10.39
2022-10-01T08:48:32.101Z,10.44
2022-10-01T08:51:04.929Z,10.53
2022-10-01T08:53:39.740Z,10.64
2022-10-01T08:56:08.409Z,10.83
2022-10-01T08:58:42.233Z,10.78
2022-10-01T09:01:11.544Z,10.82
2022-10-01T09:03:39.077Z,10.81
2022-10-01T09:06:44.357Z,10.78
2022-10-01T09:09:52.109Z,10.82
2022-10-01T09:13:04.877Z,10.80
2022-10-01T09:15:34.581Z,10.85
2022-10-01T09:18:13.531Z,10.86
2022-10-01T09:20:44.051Z,10.85
2022-10-01T09:23:34.273Z,10.92
2022-10-01T09:26:01.293Z,11.06
2022-10-01T09:28:35.612Z,11.22
2022-10-01T09:31:23.606Z,11.24
2022-10-01T09:34:18.360Z,11.29
2022-10-01T09:37:01.135Z,11.34
2022-10-01T09:39:47.870Z,11.31
2022-10-01T09:42:14.635Z,11.46
2022-10-01T09:44:42.808Z,11.55
2022-10-01T09:47:28.171Z,11.66
2022-10-01T09:49:55.304Z,11.87
2022-10-01T09:52:30.302Z,11.97
2022-10-01T09:54:58.715Z,12.05
2022-10-01T09:57:32.258Z,12.25
2022-10-01T10:00:10.861Z,12.17
2022-10-01T10:02:47.581Z,12.28
2022-10-01T10:05:19.876Z,12.17
2022-10-01T10:07:52.024Z,12.01
2022-10-01T10:10:35.603Z,11.80
2022-10-01T10:13:05.629Z,11.68
2022-10-01T10:15:33.260Z,11.55
2022-10-01T10:18:20.384Z,11.61
2022-10-01T10:20:52.954Z,11.80
2022-10-01T10:23:21.983Z,11.71
2022-10-01T10:26:02.931Z,11.65
2022-10-01T10:28:44.216Z,11.67
2022-10-01T10:31:24.434Z,11.64
2022-10-01T10:34:00.707Z,11.75
2022-10-01T10:36:30.341Z,11.81
2022-10-01T10:38:58.041Z,11.83
2022-10-01T10:41:26.489Z,11.90
2022-10-01T10:44:01.485Z,11.78
2022-10-01T10:46:33.002Z,11.93
2022-10-01T10:49:05.229Z,12.06
2022-10-01T10:51:44.998Z,12.18
2022-10-01T10:54:20.109Z,12.25
2022-10-01T10:56:54.667Z,12.56
2022-10-01T10:59:21.611Z,12.60
2022-10-01T11:01:49.505Z,12.65
2022-10-01T11:04:25.708Z,12.75
2022-10-01T11:06:57.365Z,12.76
2022-10-01T11:09:27.704Z,12.94
2022-10-01T11:11:58.084Z,13.08
2022-10-01T11:14:46.984Z,13.24
2022-10-01T11:17:44.461Z,13.49
2022-10-01T11:20:37.229Z,13.80
2022-10-01T11:23:15.730Z,13.97
2022-10-01T11:25:45.296Z,13.95
2022-10-01T11:28:18.044Z,14.01
2022-10-01T11:30:54.270Z,14.08
2022-10-01T11:33:36.838Z,13.99
2022-10-01T11:36:24.949Z,14.10
2022-10-01T11:39:16.544Z,14.26
2022-10-01T11:41:51.570Z,14.31
2022-10-01T11:44:40.733Z,14.43
2022-10-01T11:47:10.525Z,14.36
2022-10-01T11:49:56.192Z,14.34
2022-10-01T11:52:28.743Z,14.28
2022-10-01T11:55:38.300Z,14.09
2022-10-01T11:58:30.724Z,14.04
2022-10-01T12:01:04.907Z,13.93
2022-10-01T12:04:03.050Z,14.07
2022-10-01T12:06:44.821Z,14.03
2022-10-01T12:09:21.485Z,14.12
2022-10-01T12:12:13.331Z,14.18
2022-10-01T12:14:49.241Z,14.07
2022-10-01T12:17:21.639Z,14.27
2022-10-01T12:19:54.248Z,14.39
2022-10-01T12:22:28.354Z,14.34
2022-10-01T12:24:55.184Z,14.39
2022-10-01T12:27:34.690Z,14.34
2022-10-01T12:30:08.399Z,14.40
2022-10-01T12:33:05.679Z,14.58
2022-10-01T12:35:56.685Z,14.94
2022-10-01T12:38:46.382Z,15.40
2022-10-01T12:41:42.151Z,15.75
2022-10-01T12:44:49.184Z,16.44
2022-10-01T12:47:36.470Z,16.85
2022-10-01T12:50:34.562Z,16.96
2022-10-01T12:53:19.534Z,15.95
2022-10-01T12:56:10.156Z,15.71
2022-10-01T12:58:52.295Z,15.39
2022-10-01T13:01:43.391Z,15.24
2022-10-01T13:04:14.727Z,15.03
2022-10-01T13:07:00.459Z,14.94
2022-10-01T13:10:01.311Z,14.88
2022-10-01T13:13:01.522Z,14.80
2022-10-01T13:15:40.006Z,14.65
2022-10-01T13:18:13.459Z,14.50
2022-10-01T13:20:54.215Z,14.71
2022-10-01T13:23:39.434Z,15.79
2022-10-01T13:26:18.779Z,16.05
2022-10-01T13:28:54.571Z,15.82
2022-10-01T13:31:35.155Z,15.42
2022-10-01T13:34:02.839Z,15.35
2022-10-01T13:36:34.964Z,15.29
2022-10-01T13:39:01.936Z,15.10
2022-10-01T13:41:33.885Z,15.03
2022-10-01T13:44:11.595Z,15.10
2022-10-01T13:46:53.711Z,15.25
2022-10-01T13:49:30.126Z,15.25
2022-10-01T13:51:57.400Z,15.23
2022-10-01T13:54:38.330Z,15.62
2022-10-01T13:57:22.743Z,17.23
2022-10-01T13:59:59.010Z,17.81
2022-10-01T14:02:35.737Z,18.38
2022-10-01T14:05:26.829Z,19.06
2022-10-01T14:08:11.443Z,18.61
2022-10-01T14:11:04.039Z,19.41
2022-10-01T14:13:50.061Z,20.40
2022-10-01T14:16:17.312Z,20.12
2022-10-01T14:18:48.059Z,20.75
2022-10-01T14:21:28.629Z,20.74
2022-10-01T14:24:11.558Z,20.49
2022-10-01T14:27:09.387Z,20.59
2022-10-01T14:29:42.336Z,20.29
2022-10-01T14:32:17.508Z,21.17
2022-10-01T14:34:49.066Z,21.23
2022-10-01T14:37:18.244Z,20.91
2022-10-01T14:39:45.271Z,21.29
2022-10-01T14:42:18.122Z,21.29
2022-10-01T14:44:46.789Z,20.88
2022-10-01T14:47:26.078Z,20.37
2022-10-01T14:49:54.146Z,21.15
2022-10-01T14:52:28.971Z,21.12
2022-10-01T14:55:08.609Z,21.55
2022-10-01T14:57:40.456Z,21.46
2022-10-01T15:00:25.449Z,19.85
2022-10-01T15:03:02.124Z,18.89
2022-10-01T15:05:31.370Z,18.50
2022-10-01T15:07:58.105Z,17.80
2022-10-01T15:10:27.258Z,17.49
2022-10-01T15:12:54.921Z,17.17
2022-10-01T15:15:25.651Z,17.16
2022-10-01T15:17:52.606Z,17.01
2022-10-01T15:20:19.530Z,16.51
2022-10-01T15:22:48.840Z,16.61
2022-10-01T15:25:19.587Z,16.37
2022-10-01T15:27:46.972Z,17.39
2022-10-01T15:30:15.203Z,17.63
2022-10-01T15:32:42.037Z,17.49
2022-10-01T15:35:12.196Z,17.29
2022-10-01T15:37:40.609Z,17.81
2022-10-01T15:40:20.332Z,19.13
2022-10-01T15:43:08.969Z,18.67
2022-10-01T15:45:36.003Z,19.16
2022-10-01T15:48:02.942Z,19.63
2022-10-01T15:50:41.798Z,18.29
2022-10-01T15:53:20.328Z,17.97
2022-10-01T15:55:49.627Z,17.46
2022-10-01T15:58:21.028Z,17.20
2022-10-01T16:00:47.782Z,16.65
2022-10-01T16:03:23.351Z,16.51
2022-10-01T16:05:52.807Z,16.08
2022-10-01T16:08:21.972Z,16.01
2022-10-01T16:11:08.991Z,15.73
2022-10-01T16:13:38.340Z,15.60
2022-10-01T16:16:19.605Z,15.66
2022-10-01T16:18:56.250Z,15.63
2022-10-01T16:21:23.102Z,15.36
2022-10-01T16:23:53.070Z,15.37
2022-10-01T16:26:25.709Z,15.14
2022-10-01T16:29:01.360Z,15.20
2022-10-01T16:31:29.732Z,14.99
2022-10-01T16:33:56.390Z,14.75
2022-10-01T16:36:26.245Z,14.77
2022-10-01T16:38:53.492Z,14.72
2022-10-01T16:41:24.295Z,14.67
2022-10-01T16:43:51.910Z,14.54
2022-10-01T16:46:18.682Z,14.55
2022-10-01T16:48:51.635Z,14.31
2022-10-01T16:51:19.394Z,14.44
2022-10-01T16:53:47.026Z,14.31
2022-10-01T16:56:14.252Z,14.34
2022-10-01T16:58:43.090Z,14.31
2022-10-01T17:01:11.965Z,14.09
2022-10-01T17:03:38.757Z,13.99
2022-10-01T17:06:05.712Z,13.94
2022-10-01T17:08:32.562Z,13.86
2022-10-01T17:11:01.263Z,13.74
2022-10-01T17:13:29.973Z,13.69
2022-10-01T17:15:56.994Z,13.76
2022-10-01T17:18:23.743Z,13.75
2022-10-01T17:20:50.658Z,13.61
2022-10-01T17:23:19.357Z,13.49
2022-10-01T17:25:46.670Z,13.51
2022-10-01T17:28:18.355Z,13.48
2022-10-01T17:30:46.703Z,13.46
2022-10-01T17:33:14.600Z,13.14
2022-10-01T17:35:43.405Z,13.11
2022-10-01T17:38:10.895Z,13.15
2022-10-01T17:40:41.863Z,12.94
2022-10-01T17:43:13.106Z,12.75
2022-10-01T17:45:39.978Z,12.67
2022-10-01T17:48:06.956Z,12.63
2022-10-01T17:50:33.859Z,12.61
2022-10-01T17:53:01.081Z,12.36
2022-10-01T17:55:28.198Z,12.41
2022-10-01T17:57:54.948Z,12.23
2022-10-01T18:00:21.811Z,12.29
2022-10-01T18:02:48.606Z,12.33
2022-10-01T18:05:15.526Z,12.33
2022-10-01T18:07:42.708Z,12.13
2022-10-01T18:10:11.746Z,12.22
2022-10-01T18:12:38.681Z,12.08
2022-10-01T18:15:06.163Z,12.03
2022-10-01T18:17:33.618Z,12.15
2022-10-01T18:20:00.596Z,12.20
2022-10-01T18:22:28.265Z,12.17
2022-10-01T18:24:55.315Z,12.06
2022-10-01T18:27:22.182Z,11.95
2022-10-01T18:29:48.897Z,11.89
2022-10-01T18:32:21.783Z,11.94
2022-10-01T18:34:54.631Z,11.94
2022-10-01T18:38:03.036Z,11.94
2022-10-01T18:40:33.859Z,11.79
2022-10-01T18:43:11.974Z,11.82
2022-10-01T18:45:41.823Z,11.78
2022-10-01T18:48:19.979Z,11.68
2022-10-01T18:50:55.380Z,11.72
2022-10-01T18:53:36.391Z,11.70
2022-10-01T18:56:05.846Z,11.61
2022-10-01T18:59:14.522Z,11.61
2022-10-01T19:01:44.326Z,11.63
2022-10-01T19:04:26.114Z,11.57
2022-10-01T19:07:13.932Z,11.81
2022-10-01T19:09:46.607Z,11.63
2022-10-01T19:12:30.793Z,11.70
2022-10-01T19:15:19.730Z,11.60
2022-10-01T19:18:05.385Z,11.60
2022-10-01T19:20:58.149Z,11.38
2022-10-01T19:23:49.154Z,11.22
2022-10-01T19:26:21.606Z,11.22
2022-10-01T19:29:04.342Z,11.03
2022-10-01T19:31:53.654Z,11.06
2022-10-01T19:34:31.120Z,11.20
2022-10-01T19:37:05.839Z,11.14
2022-10-01T19:39:36.859Z,11.00
2022-10-01T19:42:03.501Z,10.98
2022-10-01T19:44:40.423Z,10.87
2022-10-01T19:47:27.666Z,10.89
2022-10-01T19:49:57.968Z,10.74
2022-10-01T19:52:26.134Z,10.66
2022-10-01T19:54:56.113Z,10.82
2022-10-01T19:57:31.418Z,10.57
2022-10-01T20:00:08.678Z,10.64
2022-10-01T20:03:01.805Z,10.73
2022-10-01T20:05:42.354Z,10.58
2022-10-01T20:08:24.981Z,10.39
2022-10-01T20:10:58.920Z,10.23
2022-10-01T20:13:41.615Z,10.27
2022-10-01T20:16:27.191Z,10.28
2022-10-01T20:19:13.874Z,10.25
2022-10-01T20:21:51.010Z,10.13
2022-10-01T20:24:42.634Z,10.09
2022-10-01T20:27:30.330Z,10.36
2022-10-01T20:30:01.788Z,10.30
2022-10-01T20:32:51.821Z,10.21
2022-10-01T20:35:24.766Z,10.27
2022-10-01T20:37:57.540Z,10.33
2022-10-01T20:40:28.831Z,10.37
2022-10-01T20:43:03.410Z,10.38
2022-10-01T20:45:34.051Z,10.29
2022-10-01T20:48:32.706Z,10.11
2022-10-01T20:51:10.503Z,10.00
2022-10-01T20:53:59.410Z,9.92
2022-10-01T20:56:31.879Z,9.82
2022-10-01T20:59:17.987Z,9.88
2022-10-01T21:02:40.283Z,9.93
2022-10-01T21:05:23.715Z,9.62
2022-10-01T21:07:58.043Z,9.82
2022-10-01T21:10:44.879Z,9.66
2022-10-01T21:14:10.168Z,9.18
2022-10-01T21:17:09.322Z,9.03
2022-10-01T21:20:01.816Z,9.13
2022-10-01T21:23:19.085Z,8.99
2022-10-01T21:26:13.758Z,8.97
2022-10-01T21:28:51.533Z,9.13
2022-10-01T21:31:34.678Z,8.91
2022-10-01T21:34:03.856Z,8.68
2022-10-01T21:36:36.809Z,8.83
2022-10-01T21:39:12.181Z,8.87
2022-10-01T21:41:53.752Z,8.75
2022-10-01T21:44:35.786Z,8.62
2022-10-01T21:47:12.879Z,8.80
2022-10-01T21:50:07.657Z,8.73
2022-10-01T21:52:37.358Z,8.22
2022-10-01T21:55:22.789Z,8.28
2022-10-01T21:58:12.477Z,8.41
2022-10-01T22:00:39.291Z,8.36
2022-10-01T22:03:18.140Z,8.17
2022-10-01T22:06:09.886Z,8.18
2022-10-01T22:08:54.930Z,8.29
2022-10-01T22:11:28.880Z,8.32
2022-10-01T22:14:13.314Z,8.38
2022-10-01T22:16:56.343Z,8.63
2022-10-01T22:19:29.537Z,8.79
2022-10-01T22:22:02.223Z,8.75
2022-10-01T22:24:34.169Z,8.73
2022-10-01T22:27:08.858Z,8.69
2022-10-01T22:29:40.712Z,8.76
2022-10-01T22:32:09.500Z,8.35
2022-10-01T22:34:39.527Z,8.16
2022-10-01T22:37:18.964Z,8.31
2022-10-01T22:39:50.525Z,8.60
2022-10-01T22:42:40.361Z,8.73
2022-10-01T22:45:15.176Z,9.07
2022-10-01T22:48:06.793Z,9.15
2022-10-01T22:50:38.852Z,9.02
2022-10-01T22:53:11.922Z,8.87
2022-10-01T22:55:53.157Z,8.91
2022-10-01T22:58:38.317Z,8.77
2022-10-01T23:01:05.149Z,8.80
2022-10-01T23:03:50.578Z,9.03
2022-10-01T23:06:26.268Z,8.89
2022-10-01T23:09:08.250Z,9.02
2022-10-01T23:11:54.346Z,8.99
2022-10-01T23:14:39.730Z,9.06
2022-10-01T23:17:16.542Z,9.02
2022-10-01T23:19:50.292Z,8.74
2022-10-01T23:22:55.768Z,8.97
2022-10-01T23:25:50.599Z,9.23
2022-10-01T23:28:20.663Z,9.06
2022-10-01T23:31:05.519Z,9.25
2022-10-01T23:33:42.499Z,9.38
2022-10-01T23:36:41.107Z,9.32
2022-10-01T23:39:16.628Z,9.24
2022-10-01T23:42:20.236Z,9.40
2022-10-01T23:45:22.125Z,9.41
2022-10-01T23:47:51.533Z,9.53
2022-10-01T23:50:53.393Z,9.63
2022-10-01T23:53:33.147Z,9.63
2022-10-01T23:56:26.665Z,9.62
2022-10-01T23:59:05.695Z,9.53
